sensor_id;sensor_type;location;lat;lon;timestamp;P1;durP1;ratioP1;P2;durP2;ratioP2
27113;SDS011;14648;49.730;8.614;2024-02-16T00:01:32;7.00;;;1.60;;
27113;SDS011;14648;49.730;8.614;2024-02-16T00:03:58;3.90;;;1.87;;
27113;SDS011;14648;49.730;8.614;2024-02-16T00:06:24;1.63;;;1.53;;
27113;SDS011;14648;49.730;8.614;2024-02-16T00:08:49;2.13;;;1.23;;
27113;SDS011;14648;49.730;8.614;2024-02-16T00:11:15;2.90;;;1.00;;
27113;SDS011;14648;49.730;8.614;2024-02-16T00:13:41;1.40;;;1.30;;
27113;SDS011;14648;49.730;8.614;2024-02-16T00:16:07;1.40;;;0.97;;
27113;SDS011;14648;49.730;8.614;2024-02-16T00:18:32;0.80;;;0.80;;
27113;SDS011;14648;49.730;8.614;2024-02-16T00:20:58;1.23;;;0.90;;
27113;SDS011;14648;49.730;8.614;2024-02-16T00:23:24;1.40;;;0.77;;
27113;SDS011;14648;49.730;8.614;2024-02-16T00:25:50;1.80;;;1.20;;
27113;SDS011;14648;49.730;8.614;2024-02-16T00:28:16;1.23;;;1.03;;
27113;SDS011;14648;49.730;8.614;2024-02-16T00:30:42;1.00;;;0.80;;
27113;SDS011;14648;49.730;8.614;2024-02-16T00:33:07;1.20;;;1.10;;
27113;SDS011;14648;49.730;8.614;2024-02-16T00:35:33;1.30;;;1.20;;
27113;SDS011;14648;49.730;8.614;2024-02-16T00:37:59;1.20;;;0.80;;
27113;SDS011;14648;49.730;8.614;2024-02-16T00:40:25;1.30;;;1.07;;
27113;SDS011;14648;49.730;8.614;2024-02-16T00:42:54;1.23;;;1.13;;
27113;SDS011;14648;49.730;8.614;2024-02-16T00:45:20;9.50;;;1.10;;
27113;SDS011;14648;49.730;8.614;2024-02-16T00:47:46;1.13;;;1.03;;
27113;SDS011;14648;49.730;8.614;2024-02-16T00:50:13;1.67;;;1.57;;
27113;SDS011;14648;49.730;8.614;2024-02-16T00:52:40;1.63;;;1.00;;
27113;SDS011;14648;49.730;8.614;2024-02-16T00:55:06;1.50;;;0.80;;
27113;SDS011;14648;49.730;8.614;2024-02-16T00:57:32;11.93;;;1.43;;
27113;SDS011;14648;49.730;8.614;2024-02-16T00:59:59;3.27;;;1.00;;
27113;SDS011;14648;49.730;8.614;2024-02-16T01:02:25;0.70;;;0.70;;
27113;SDS011;14648;49.730;8.614;2024-02-16T01:04:51;2.70;;;0.73;;
27113;SDS011;14648;49.730;8.614;2024-02-16T01:07:16;1.20;;;0.93;;
27113;SDS011;14648;49.730;8.614;2024-02-16T01:09:42;1.10;;;1.00;;
27113;SDS011;14648;49.730;8.614;2024-02-16T01:12:08;1.50;;;0.80;;
27113;SDS011;14648;49.730;8.614;2024-02-16T01:14:34;1.10;;;0.80;;
27113;SDS011;14648;49.730;8.614;2024-02-16T01:16:59;0.87;;;0.87;;
27113;SDS011;14648;49.730;8.614;2024-02-16T01:19:25;1.47;;;0.80;;
27113;SDS011;14648;49.730;8.614;2024-02-16T01:21:51;3.17;;;1.23;;
27113;SDS011;14648;49.730;8.614;2024-02-16T01:24:18;1.53;;;0.77;;
27113;SDS011;14648;49.730;8.614;2024-02-16T01:26:46;0.80;;;0.80;;
27113;SDS011;14648;49.730;8.614;2024-02-16T01:29:11;3.23;;;1.10;;
27113;SDS011;14648;49.730;8.614;2024-02-16T01:31:37;0.70;;;0.60;;
27113;SDS011;14648;49.730;8.614;2024-02-16T01:34:03;1.40;;;1.30;;
27113;SDS011;14648;49.730;8.614;2024-02-16T01:36:29;1.50;;;0.87;;
27113;SDS011;14648;49.730;8.614;2024-02-16T01:38:54;1.10;;;1.00;;
27113;SDS011;14648;49.730;8.614;2024-02-16T01:41:20;3.83;;;1.30;;
27113;SDS011;14648;49.730;8.614;2024-02-16T01:43:46;4.73;;;1.17;;
27113;SDS011;14648;49.730;8.614;2024-02-16T01:46:12;1.13;;;1.03;;
27113;SDS011;14648;49.730;8.614;2024-02-16T01:48:38;3.00;;;1.70;;
27113;SDS011;14648;49.730;8.614;2024-02-16T01:51:07;5.30;;;1.43;;
27113;SDS011;14648;49.730;8.614;2024-02-16T01:53:34;6.63;;;1.40;;
27113;SDS011;14648;49.730;8.614;2024-02-16T01:56:02;2.43;;;1.47;;
27113;SDS011;14648;49.730;8.614;2024-02-16T01:58:28;4.40;;;1.90;;
27113;SDS011;14648;49.730;8.614;2024-02-16T02:00:53;1.10;;;1.00;;
27113;SDS011;14648;49.730;8.614;2024-02-16T02:03:19;1.40;;;1.30;;
27113;SDS011;14648;49.730;8.614;2024-02-16T02:05:45;3.43;;;1.73;;
27113;SDS011;14648;49.730;8.614;2024-02-16T02:08:12;2.27;;;1.37;;
27113;SDS011;14648;49.730;8.614;2024-02-16T02:10:39;1.00;;;0.90;;
27113;SDS011;14648;49.730;8.614;2024-02-16T02:13:04;1.10;;;1.00;;
27113;SDS011;14648;49.730;8.614;2024-02-16T02:15:30;1.17;;;1.00;;
27113;SDS011;14648;49.730;8.614;2024-02-16T02:17:56;1.70;;;0.80;;
27113;SDS011;14648;49.730;8.614;2024-02-16T02:20:24;0.97;;;0.80;;
27113;SDS011;14648;49.730;8.614;2024-02-16T02:22:50;1.73;;;1.00;;
27113;SDS011;14648;49.730;8.614;2024-02-16T02:25:15;1.17;;;1.00;;
27113;SDS011;14648;49.730;8.614;2024-02-16T02:27:41;2.30;;;0.77;;
27113;SDS011;14648;49.730;8.614;2024-02-16T02:30:07;2.10;;;0.90;;
27113;SDS011;14648;49.730;8.614;2024-02-16T02:32:34;3.83;;;1.10;;
27113;SDS011;14648;49.730;8.614;2024-02-16T02:35:00;1.13;;;0.90;;
27113;SDS011;14648;49.730;8.614;2024-02-16T02:37:29;1.40;;;0.80;;
27113;SDS011;14648;49.730;8.614;2024-02-16T02:39:55;2.33;;;0.97;;
27113;SDS011;14648;49.730;8.614;2024-02-16T02:42:21;2.30;;;0.97;;
27113;SDS011;14648;49.730;8.614;2024-02-16T02:44:47;0.83;;;0.83;;
27113;SDS011;14648;49.730;8.614;2024-02-16T02:47:15;4.03;;;0.80;;
27113;SDS011;14648;49.730;8.614;2024-02-16T02:49:44;2.40;;;0.90;;
27113;SDS011;14648;49.730;8.614;2024-02-16T02:52:10;1.27;;;0.90;;
27113;SDS011;14648;49.730;8.614;2024-02-16T02:54:35;5.50;;;0.83;;
27113;SDS011;14648;49.730;8.614;2024-02-16T02:57:01;0.80;;;0.80;;
27113;SDS011;14648;49.730;8.614;2024-02-16T02:59:28;0.80;;;0.80;;
27113;SDS011;14648;49.730;8.614;2024-02-16T03:01:54;1.20;;;1.20;;
27113;SDS011;14648;49.730;8.614;2024-02-16T03:04:19;5.43;;;1.80;;
27113;SDS011;14648;49.730;8.614;2024-02-16T03:06:45;1.10;;;0.87;;
27113;SDS011;14648;49.730;8.614;2024-02-16T03:09:11;1.60;;;1.00;;
27113;SDS011;14648;49.730;8.614;2024-02-16T03:11:37;0.90;;;0.90;;
27113;SDS011;14648;49.730;8.614;2024-02-16T03:14:04;1.13;;;0.80;;
27113;SDS011;14648;49.730;8.614;2024-02-16T03:16:30;0.90;;;0.90;;
27113;SDS011;14648;49.730;8.614;2024-02-16T03:18:57;6.40;;;1.23;;
27113;SDS011;14648;49.730;8.614;2024-02-16T03:21:22;2.30;;;1.00;;
27113;SDS011;14648;49.730;8.614;2024-02-16T03:23:48;5.27;;;0.80;;
27113;SDS011;14648;49.730;8.614;2024-02-16T03:26:15;2.50;;;1.20;;
27113;SDS011;14648;49.730;8.614;2024-02-16T03:28:43;2.70;;;1.97;;
27113;SDS011;14648;49.730;8.614;2024-02-16T03:31:24;3.80;;;1.20;;
27113;SDS011;14648;49.730;8.614;2024-02-16T03:33:50;1.77;;;1.10;;
27113;SDS011;14648;49.730;8.614;2024-02-16T03:36:17;2.00;;;1.00;;
27113;SDS011;14648;49.730;8.614;2024-02-16T03:38:44;5.37;;;0.77;;
27113;SDS011;14648;49.730;8.614;2024-02-16T03:41:12;1.20;;;1.10;;
27113;SDS011;14648;49.730;8.614;2024-02-16T03:43:39;2.70;;;1.30;;
27113;SDS011;14648;49.730;8.614;2024-02-16T03:46:06;1.10;;;1.00;;
27113;SDS011;14648;49.730;8.614;2024-02-16T03:48:32;1.47;;;1.00;;
27113;SDS011;14648;49.730;8.614;2024-02-16T03:50:57;4.43;;;0.70;;
27113;SDS011;14648;49.730;8.614;2024-02-16T03:53:23;1.87;;;1.20;;
27113;SDS011;14648;49.730;8.614;2024-02-16T03:55:49;1.87;;;0.90;;
27113;SDS011;14648;49.730;8.614;2024-02-16T03:58:15;1.37;;;0.77;;
27113;SDS011;14648;49.730;8.614;2024-02-16T04:00:42;1.07;;;0.80;;
27113;SDS011;14648;49.730;8.614;2024-02-16T04:03:08;0.90;;;0.90;;
27113;SDS011;14648;49.730;8.614;2024-02-16T04:05:34;2.30;;;1.07;;
27113;SDS011;14648;49.730;8.614;2024-02-16T04:08:06;1.03;;;0.80;;
27113;SDS011;14648;49.730;8.614;2024-02-16T04:10:32;1.53;;;1.30;;
27113;SDS011;14648;49.730;8.614;2024-02-16T04:12:59;1.83;;;0.97;;
27113;SDS011;14648;49.730;8.614;2024-02-16T04:15:25;1.50;;;1.40;;
27113;SDS011;14648;49.730;8.614;2024-02-16T04:17:51;2.10;;;1.67;;
27113;SDS011;14648;49.730;8.614;2024-02-16T04:20:17;1.67;;;1.00;;
27113;SDS011;14648;49.730;8.614;2024-02-16T04:22:45;4.40;;;1.30;;
27113;SDS011;14648;49.730;8.614;2024-02-16T04:25:11;1.33;;;1.23;;
27113;SDS011;14648;49.730;8.614;2024-02-16T04:27:37;6.37;;;1.10;;
27113;SDS011;14648;49.730;8.614;2024-02-16T04:30:03;3.70;;;1.37;;
27113;SDS011;14648;49.730;8.614;2024-02-16T04:32:31;2.50;;;1.43;;
27113;SDS011;14648;49.730;8.614;2024-02-16T04:34:57;5.10;;;1.20;;
27113;SDS011;14648;49.730;8.614;2024-02-16T04:37:24;2.23;;;1.37;;
27113;SDS011;14648;49.730;8.614;2024-02-16T04:39:50;1.00;;;0.90;;
27113;SDS011;14648;49.730;8.614;2024-02-16T04:42:16;2.37;;;1.10;;
27113;SDS011;14648;49.730;8.614;2024-02-16T04:44:43;2.30;;;0.97;;
27113;SDS011;14648;49.730;8.614;2024-02-16T04:47:09;2.13;;;1.00;;
27113;SDS011;14648;49.730;8.614;2024-02-16T04:49:35;8.43;;;2.00;;
27113;SDS011;14648;49.730;8.614;2024-02-16T04:52:02;1.37;;;1.27;;
27113;SDS011;14648;49.730;8.614;2024-02-16T04:54:28;1.60;;;1.10;;
27113;SDS011;14648;49.730;8.614;2024-02-16T04:56:54;1.30;;;1.20;;
27113;SDS011;14648;49.730;8.614;2024-02-16T04:59:20;4.50;;;1.03;;
27113;SDS011;14648;49.730;8.614;2024-02-16T05:01:46;1.60;;;1.30;;
27113;SDS011;14648;49.730;8.614;2024-02-16T05:04:12;1.97;;;1.30;;
27113;SDS011;14648;49.730;8.614;2024-02-16T05:06:42;3.47;;;1.70;;
27113;SDS011;14648;49.730;8.614;2024-02-16T05:09:10;1.30;;;1.00;;
27113;SDS011;14648;49.730;8.614;2024-02-16T05:11:36;2.43;;;1.27;;
27113;SDS011;14648;49.730;8.614;2024-02-16T05:14:04;2.23;;;1.40;;
27113;SDS011;14648;49.730;8.614;2024-02-16T05:16:31;2.30;;;1.20;;
27113;SDS011;14648;49.730;8.614;2024-02-16T05:18:57;2.07;;;1.13;;
27113;SDS011;14648;49.730;8.614;2024-02-16T05:21:23;5.00;;;1.00;;
27113;SDS011;14648;49.730;8.614;2024-02-16T05:23:49;1.53;;;1.13;;
27113;SDS011;14648;49.730;8.614;2024-02-16T05:26:15;1.37;;;1.17;;
27113;SDS011;14648;49.730;8.614;2024-02-16T05:28:40;1.30;;;1.20;;
27113;SDS011;14648;49.730;8.614;2024-02-16T05:31:13;3.30;;;0.93;;
27113;SDS011;14648;49.730;8.614;2024-02-16T05:33:44;4.10;;;1.10;;
27113;SDS011;14648;49.730;8.614;2024-02-16T05:36:21;6.07;;;2.07;;
27113;SDS011;14648;49.730;8.614;2024-02-16T05:38:55;2.10;;;1.13;;
27113;SDS011;14648;49.730;8.614;2024-02-16T05:41:21;12.23;;;1.20;;
27113;SDS011;14648;49.730;8.614;2024-02-16T05:43:47;1.80;;;1.70;;
27113;SDS011;14648;49.730;8.614;2024-02-16T05:46:16;2.47;;;1.80;;
27113;SDS011;14648;49.730;8.614;2024-02-16T05:48:43;1.40;;;1.30;;
27113;SDS011;14648;49.730;8.614;2024-02-16T05:51:10;3.13;;;1.50;;
27113;SDS011;14648;49.730;8.614;2024-02-16T05:53:38;1.53;;;1.37;;
27113;SDS011;14648;49.730;8.614;2024-02-16T05:56:05;3.23;;;1.67;;
27113;SDS011;14648;49.730;8.614;2024-02-16T05:58:32;8.80;;;1.10;;
27113;SDS011;14648;49.730;8.614;2024-02-16T06:00:58;5.27;;;1.77;;
27113;SDS011;14648;49.730;8.614;2024-02-16T06:03:24;1.63;;;1.53;;
27113;SDS011;14648;49.730;8.614;2024-02-16T06:05:51;4.10;;;1.73;;
27113;SDS011;14648;49.730;8.614;2024-02-16T06:08:17;6.13;;;2.30;;
27113;SDS011;14648;49.730;8.614;2024-02-16T06:10:44;1.77;;;1.30;;
27113;SDS011;14648;49.730;8.614;2024-02-16T06:13:16;5.70;;;1.80;;
27113;SDS011;14648;49.730;8.614;2024-02-16T06:15:43;2.13;;;1.63;;
27113;SDS011;14648;49.730;8.614;2024-02-16T06:18:09;1.90;;;1.70;;
27113;SDS011;14648;49.730;8.614;2024-02-16T06:20:34;4.60;;;1.93;;
27113;SDS011;14648;49.730;8.614;2024-02-16T06:23:00;5.37;;;2.13;;
27113;SDS011;14648;49.730;8.614;2024-02-16T06:25:26;1.80;;;1.70;;
27113;SDS011;14648;49.730;8.614;2024-02-16T06:27:52;2.17;;;1.97;;
27113;SDS011;14648;49.730;8.614;2024-02-16T06:30:18;1.10;;;1.00;;
27113;SDS011;14648;49.730;8.614;2024-02-16T06:32:44;4.30;;;1.10;;
27113;SDS011;14648;49.730;8.614;2024-02-16T06:35:09;3.00;;;1.80;;
27113;SDS011;14648;49.730;8.614;2024-02-16T06:37:36;1.77;;;1.20;;
27113;SDS011;14648;49.730;8.614;2024-02-16T06:40:05;4.53;;;2.60;;
27113;SDS011;14648;49.730;8.614;2024-02-16T06:42:35;5.13;;;1.53;;
27113;SDS011;14648;49.730;8.614;2024-02-16T06:45:01;1.83;;;1.70;;
27113;SDS011;14648;49.730;8.614;2024-02-16T06:47:28;4.50;;;1.67;;
27113;SDS011;14648;49.730;8.614;2024-02-16T06:49:54;4.40;;;1.83;;
27113;SDS011;14648;49.730;8.614;2024-02-16T06:52:20;5.27;;;2.67;;
27113;SDS011;14648;49.730;8.614;2024-02-16T06:54:45;3.03;;;1.53;;
27113;SDS011;14648;49.730;8.614;2024-02-16T06:57:11;1.57;;;1.40;;
27113;SDS011;14648;49.730;8.614;2024-02-16T06:59:37;13.80;;;2.77;;
27113;SDS011;14648;49.730;8.614;2024-02-16T07:02:03;2.47;;;2.00;;
27113;SDS011;14648;49.730;8.614;2024-02-16T07:04:28;1.97;;;1.77;;
27113;SDS011;14648;49.730;8.614;2024-02-16T07:06:54;1.80;;;1.63;;
27113;SDS011;14648;49.730;8.614;2024-02-16T07:09:20;9.13;;;2.17;;
27113;SDS011;14648;49.730;8.614;2024-02-16T07:11:47;3.13;;;1.30;;
27113;SDS011;14648;49.730;8.614;2024-02-16T07:14:15;3.60;;;2.07;;
27113;SDS011;14648;49.730;8.614;2024-02-16T07:16:41;1.60;;;1.50;;
27113;SDS011;14648;49.730;8.614;2024-02-16T07:19:07;1.90;;;1.10;;
27113;SDS011;14648;49.730;8.614;2024-02-16T07:21:33;1.50;;;1.40;;
27113;SDS011;14648;49.730;8.614;2024-02-16T07:23:59;1.77;;;1.67;;
27113;SDS011;14648;49.730;8.614;2024-02-16T07:26:25;1.70;;;1.60;;
27113;SDS011;14648;49.730;8.614;2024-02-16T07:28:51;3.40;;;1.50;;
27113;SDS011;14648;49.730;8.614;2024-02-16T07:31:17;6.07;;;1.80;;
27113;SDS011;14648;49.730;8.614;2024-02-16T07:33:42;5.00;;;2.00;;
27113;SDS011;14648;49.730;8.614;2024-02-16T07:36:08;2.70;;;2.27;;
27113;SDS011;14648;49.730;8.614;2024-02-16T07:38:35;4.03;;;3.00;;
27113;SDS011;14648;49.730;8.614;2024-02-16T07:41:01;7.00;;;3.27;;
27113;SDS011;14648;49.730;8.614;2024-02-16T07:43:27;10.37;;;5.30;;
27113;SDS011;14648;49.730;8.614;2024-02-16T07:45:53;6.20;;;3.53;;
27113;SDS011;14648;49.730;8.614;2024-02-16T07:48:19;6.43;;;3.67;;
27113;SDS011;14648;49.730;8.614;2024-02-16T07:50:46;7.27;;;3.30;;
27113;SDS011;14648;49.730;8.614;2024-02-16T07:53:13;7.20;;;3.47;;
27113;SDS011;14648;49.730;8.614;2024-02-16T07:55:39;9.40;;;4.03;;
27113;SDS011;14648;49.730;8.614;2024-02-16T07:58:05;14.80;;;3.63;;
27113;SDS011;14648;49.730;8.614;2024-02-16T08:00:31;5.80;;;2.40;;
27113;SDS011;14648;49.730;8.614;2024-02-16T08:02:56;5.13;;;2.90;;
27113;SDS011;14648;49.730;8.614;2024-02-16T08:05:22;7.03;;;2.17;;
27113;SDS011;14648;49.730;8.614;2024-02-16T08:07:49;6.93;;;2.60;;
27113;SDS011;14648;49.730;8.614;2024-02-16T08:10:18;2.47;;;1.97;;
27113;SDS011;14648;49.730;8.614;2024-02-16T08:12:46;11.40;;;3.33;;
27113;SDS011;14648;49.730;8.614;2024-02-16T08:15:12;2.07;;;1.60;;
27113;SDS011;14648;49.730;8.614;2024-02-16T08:17:38;2.63;;;1.80;;
27113;SDS011;14648;49.730;8.614;2024-02-16T08:20:06;2.40;;;2.13;;
27113;SDS011;14648;49.730;8.614;2024-02-16T08:22:33;3.23;;;2.10;;
27113;SDS011;14648;49.730;8.614;2024-02-16T08:24:59;2.80;;;2.27;;
27113;SDS011;14648;49.730;8.614;2024-02-16T08:27:25;15.63;;;2.80;;
27113;SDS011;14648;49.730;8.614;2024-02-16T08:29:50;2.53;;;1.40;;
27113;SDS011;14648;49.730;8.614;2024-02-16T08:32:19;5.70;;;2.03;;
27113;SDS011;14648;49.730;8.614;2024-02-16T08:34:46;4.93;;;2.20;;
27113;SDS011;14648;49.730;8.614;2024-02-16T08:37:13;1.73;;;1.63;;
27113;SDS011;14648;49.730;8.614;2024-02-16T08:39:39;2.80;;;1.47;;
27113;SDS011;14648;49.730;8.614;2024-02-16T08:42:06;4.60;;;1.50;;
27113;SDS011;14648;49.730;8.614;2024-02-16T08:44:34;6.33;;;1.83;;
27113;SDS011;14648;49.730;8.614;2024-02-16T08:47:00;4.23;;;2.20;;
27113;SDS011;14648;49.730;8.614;2024-02-16T08:49:25;5.27;;;1.83;;
27113;SDS011;14648;49.730;8.614;2024-02-16T08:51:52;5.70;;;2.07;;
27113;SDS011;14648;49.730;8.614;2024-02-16T08:54:17;6.33;;;2.00;;
27113;SDS011;14648;49.730;8.614;2024-02-16T08:56:43;3.20;;;2.10;;
27113;SDS011;14648;49.730;8.614;2024-02-16T08:59:10;2.17;;;1.87;;
27113;SDS011;14648;49.730;8.614;2024-02-16T09:01:37;2.90;;;2.13;;
27113;SDS011;14648;49.730;8.614;2024-02-16T09:04:04;2.73;;;2.47;;
27113;SDS011;14648;49.730;8.614;2024-02-16T09:06:30;4.17;;;2.37;;
27113;SDS011;14648;49.730;8.614;2024-02-16T09:08:57;1.40;;;1.30;;
27113;SDS011;14648;49.730;8.614;2024-02-16T09:11:23;4.10;;;1.87;;
27113;SDS011;14648;49.730;8.614;2024-02-16T09:13:49;5.60;;;2.57;;
27113;SDS011;14648;49.730;8.614;2024-02-16T09:16:15;3.53;;;1.47;;
27113;SDS011;14648;49.730;8.614;2024-02-16T09:18:40;2.80;;;1.50;;
27113;SDS011;14648;49.730;8.614;2024-02-16T09:21:06;2.73;;;2.50;;
27113;SDS011;14648;49.730;8.614;2024-02-16T09:23:33;2.50;;;2.00;;
27113;SDS011;14648;49.730;8.614;2024-02-16T09:26:00;2.53;;;1.83;;
27113;SDS011;14648;49.730;8.614;2024-02-16T09:28:27;1.73;;;1.63;;
27113;SDS011;14648;49.730;8.614;2024-02-16T09:30:54;6.30;;;2.30;;
27113;SDS011;14648;49.730;8.614;2024-02-16T09:33:21;2.90;;;2.00;;
27113;SDS011;14648;49.730;8.614;2024-02-16T09:35:48;4.20;;;2.07;;
27113;SDS011;14648;49.730;8.614;2024-02-16T09:38:14;2.03;;;1.60;;
27113;SDS011;14648;49.730;8.614;2024-02-16T09:40:39;1.50;;;1.40;;
27113;SDS011;14648;49.730;8.614;2024-02-16T09:43:05;1.70;;;1.60;;
27113;SDS011;14648;49.730;8.614;2024-02-16T09:45:32;5.50;;;2.63;;
27113;SDS011;14648;49.730;8.614;2024-02-16T09:47:58;3.73;;;2.57;;
27113;SDS011;14648;49.730;8.614;2024-02-16T09:50:25;1.93;;;1.50;;
27113;SDS011;14648;49.730;8.614;2024-02-16T09:52:54;3.37;;;2.43;;
27113;SDS011;14648;49.730;8.614;2024-02-16T09:55:21;2.63;;;1.93;;
27113;SDS011;14648;49.730;8.614;2024-02-16T09:57:57;4.53;;;1.90;;
27113;SDS011;14648;49.730;8.614;2024-02-16T10:00:26;3.00;;;1.90;;
27113;SDS011;14648;49.730;8.614;2024-02-16T10:02:52;3.03;;;2.73;;
27113;SDS011;14648;49.730;8.614;2024-02-16T10:05:19;3.43;;;2.27;;
27113;SDS011;14648;49.730;8.614;2024-02-16T10:07:45;1.50;;;1.40;;
27113;SDS011;14648;49.730;8.614;2024-02-16T10:10:22;1.90;;;1.67;;
27113;SDS011;14648;49.730;8.614;2024-02-16T10:13:00;3.67;;;2.50;;
27113;SDS011;14648;49.730;8.614;2024-02-16T10:15:31;4.40;;;2.20;;
27113;SDS011;14648;49.730;8.614;2024-02-16T10:18:04;3.27;;;2.00;;
27113;SDS011;14648;49.730;8.614;2024-02-16T10:20:34;4.07;;;2.37;;
27113;SDS011;14648;49.730;8.614;2024-02-16T10:23:10;10.63;;;2.60;;
27113;SDS011;14648;49.730;8.614;2024-02-16T10:25:38;3.53;;;2.00;;
27113;SDS011;14648;49.730;8.614;2024-02-16T10:28:06;2.03;;;1.87;;
27113;SDS011;14648;49.730;8.614;2024-02-16T10:30:39;7.03;;;2.20;;
27113;SDS011;14648;49.730;8.614;2024-02-16T10:33:07;2.70;;;1.97;;
27113;SDS011;14648;49.730;8.614;2024-02-16T10:35:34;4.07;;;2.43;;
27113;SDS011;14648;49.730;8.614;2024-02-16T10:38:02;3.23;;;2.20;;
27113;SDS011;14648;49.730;8.614;2024-02-16T10:40:36;2.17;;;2.00;;
27113;SDS011;14648;49.730;8.614;2024-02-16T10:43:04;2.20;;;2.00;;
27113;SDS011;14648;49.730;8.614;2024-02-16T10:45:35;3.93;;;1.67;;
27113;SDS011;14648;49.730;8.614;2024-02-16T10:48:03;5.40;;;2.20;;
27113;SDS011;14648;49.730;8.614;2024-02-16T10:50:31;3.73;;;2.13;;
27113;SDS011;14648;49.730;8.614;2024-02-16T10:53:00;4.43;;;1.93;;
27113;SDS011;14648;49.730;8.614;2024-02-16T10:55:49;7.27;;;1.80;;
27113;SDS011;14648;49.730;8.614;2024-02-16T10:58:16;5.30;;;1.63;;
27113;SDS011;14648;49.730;8.614;2024-02-16T11:00:50;3.43;;;1.97;;
27113;SDS011;14648;49.730;8.614;2024-02-16T11:03:21;4.50;;;2.10;;
27113;SDS011;14648;49.730;8.614;2024-02-16T11:05:49;4.30;;;2.20;;
27113;SDS011;14648;49.730;8.614;2024-02-16T11:08:16;4.83;;;1.90;;
27113;SDS011;14648;49.730;8.614;2024-02-16T11:10:57;1.43;;;1.33;;
27113;SDS011;14648;49.730;8.614;2024-02-16T11:13:25;4.87;;;2.07;;
27113;SDS011;14648;49.730;8.614;2024-02-16T11:15:58;4.57;;;2.57;;
27113;SDS011;14648;49.730;8.614;2024-02-16T11:18:27;2.50;;;1.87;;
27113;SDS011;14648;49.730;8.614;2024-02-16T11:20:54;4.27;;;1.90;;
27113;SDS011;14648;49.730;8.614;2024-02-16T11:23:24;2.40;;;1.87;;
27113;SDS011;14648;49.730;8.614;2024-02-16T11:26:02;3.13;;;2.20;;
27113;SDS011;14648;49.730;8.614;2024-02-16T11:28:34;6.63;;;2.07;;
27113;SDS011;14648;49.730;8.614;2024-02-16T11:31:00;2.10;;;1.90;;
27113;SDS011;14648;49.730;8.614;2024-02-16T11:33:27;5.63;;;1.73;;
27113;SDS011;14648;49.730;8.614;2024-02-16T11:36:04;4.53;;;2.30;;
27113;SDS011;14648;49.730;8.614;2024-02-16T11:38:33;3.27;;;1.93;;
27113;SDS011;14648;49.730;8.614;2024-02-16T11:41:03;3.70;;;2.77;;
27113;SDS011;14648;49.730;8.614;2024-02-16T11:43:31;1.83;;;1.73;;
27113;SDS011;14648;49.730;8.614;2024-02-16T11:46:10;3.27;;;2.17;;
27113;SDS011;14648;49.730;8.614;2024-02-16T11:48:40;2.57;;;2.30;;
27113;SDS011;14648;49.730;8.614;2024-02-16T11:51:06;13.47;;;2.93;;
27113;SDS011;14648;49.730;8.614;2024-02-16T11:53:32;2.33;;;2.13;;
27113;SDS011;14648;49.730;8.614;2024-02-16T11:55:58;5.47;;;2.10;;
27113;SDS011;14648;49.730;8.614;2024-02-16T11:58:25;2.67;;;1.83;;
27113;SDS011;14648;49.730;8.614;2024-02-16T12:00:51;13.30;;;2.90;;
27113;SDS011;14648;49.730;8.614;2024-02-16T12:03:18;1.80;;;1.70;;
27113;SDS011;14648;49.730;8.614;2024-02-16T12:05:51;1.83;;;1.40;;
27113;SDS011;14648;49.730;8.614;2024-02-16T12:08:18;4.53;;;1.37;;
27113;SDS011;14648;49.730;8.614;2024-02-16T12:10:46;2.60;;;1.43;;
27113;SDS011;14648;49.730;8.614;2024-02-16T12:13:16;1.20;;;1.10;;
27113;SDS011;14648;49.730;8.614;2024-02-16T12:15:44;2.27;;;0.97;;
27113;SDS011;14648;49.730;8.614;2024-02-16T12:18:23;1.30;;;1.20;;
27113;SDS011;14648;49.730;8.614;2024-02-16T12:21:00;1.90;;;1.17;;
27113;SDS011;14648;49.730;8.614;2024-02-16T12:23:28;4.70;;;1.30;;
27113;SDS011;14648;49.730;8.614;2024-02-16T12:25:57;1.03;;;0.93;;
27113;SDS011;14648;49.730;8.614;2024-02-16T12:28:25;0.87;;;0.87;;
27113;SDS011;14648;49.730;8.614;2024-02-16T12:30:57;4.93;;;1.57;;
27113;SDS011;14648;49.730;8.614;2024-02-16T12:33:23;0.83;;;0.83;;
27113;SDS011;14648;49.730;8.614;2024-02-16T12:35:49;1.93;;;1.20;;
27113;SDS011;14648;49.730;8.614;2024-02-16T12:38:15;1.83;;;1.10;;
27113;SDS011;14648;49.730;8.614;2024-02-16T12:40:47;3.73;;;1.50;;
27113;SDS011;14648;49.730;8.614;2024-02-16T12:43:14;1.53;;;1.10;;
27113;SDS011;14648;49.730;8.614;2024-02-16T12:45:40;2.57;;;1.20;;
27113;SDS011;14648;49.730;8.614;2024-02-16T12:48:07;1.63;;;1.40;;
27113;SDS011;14648;49.730;8.614;2024-02-16T12:50:35;2.17;;;1.10;;
27113;SDS011;14648;49.730;8.614;2024-02-16T12:53:02;3.60;;;1.07;;
27113;SDS011;14648;49.730;8.614;2024-02-16T12:55:28;1.17;;;0.80;;
27113;SDS011;14648;49.730;8.614;2024-02-16T12:57:55;2.30;;;1.27;;
27113;SDS011;14648;49.730;8.614;2024-02-16T13:00:21;2.20;;;1.00;;
27113;SDS011;14648;49.730;8.614;2024-02-16T13:02:47;3.67;;;1.10;;
27113;SDS011;14648;49.730;8.614;2024-02-16T13:05:13;1.20;;;1.00;;
27113;SDS011;14648;49.730;8.614;2024-02-16T13:07:39;3.60;;;1.10;;
27113;SDS011;14648;49.730;8.614;2024-02-16T13:10:06;3.13;;;1.10;;
27113;SDS011;14648;49.730;8.614;2024-02-16T13:12:33;8.43;;;1.20;;
27113;SDS011;14648;49.730;8.614;2024-02-16T13:14:59;0.80;;;0.80;;
27113;SDS011;14648;49.730;8.614;2024-02-16T13:17:27;1.20;;;0.93;;
27113;SDS011;14648;49.730;8.614;2024-02-16T13:19:52;6.23;;;1.53;;
27113;SDS011;14648;49.730;8.614;2024-02-16T13:22:18;6.33;;;1.30;;
27113;SDS011;14648;49.730;8.614;2024-02-16T13:24:45;4.83;;;1.30;;
27113;SDS011;14648;49.730;8.614;2024-02-16T13:27:10;3.07;;;1.00;;
27113;SDS011;14648;49.730;8.614;2024-02-16T13:29:37;6.20;;;1.57;;
27113;SDS011;14648;49.730;8.614;2024-02-16T13:32:06;1.17;;;1.00;;
27113;SDS011;14648;49.730;8.614;2024-02-16T13:34:32;4.70;;;1.20;;
27113;SDS011;14648;49.730;8.614;2024-02-16T13:37:01;7.23;;;1.47;;
27113;SDS011;14648;49.730;8.614;2024-02-16T13:39:28;1.37;;;1.00;;
27113;SDS011;14648;49.730;8.614;2024-02-16T13:41:56;2.20;;;1.10;;
27113;SDS011;14648;49.730;8.614;2024-02-16T13:44:25;1.13;;;1.10;;
27113;SDS011;14648;49.730;8.614;2024-02-16T13:46:53;5.13;;;1.33;;
27113;SDS011;14648;49.730;8.614;2024-02-16T13:49:20;1.07;;;0.97;;
27113;SDS011;14648;49.730;8.614;2024-02-16T13:51:47;2.60;;;1.00;;
27113;SDS011;14648;49.730;8.614;2024-02-16T13:54:18;2.40;;;0.90;;
27113;SDS011;14648;49.730;8.614;2024-02-16T13:56:46;1.70;;;1.13;;
27113;SDS011;14648;49.730;8.614;2024-02-16T13:59:13;13.03;;;1.30;;
27113;SDS011;14648;49.730;8.614;2024-02-16T14:01:43;8.43;;;1.23;;
27113;SDS011;14648;49.730;8.614;2024-02-16T14:04:14;1.13;;;1.00;;
27113;SDS011;14648;49.730;8.614;2024-02-16T14:06:43;6.87;;;0.97;;
27113;SDS011;14648;49.730;8.614;2024-02-16T14:09:12;6.10;;;1.50;;
27113;SDS011;14648;49.730;8.614;2024-02-16T14:11:40;2.57;;;0.87;;
27113;SDS011;14648;49.730;8.614;2024-02-16T14:14:16;1.93;;;1.03;;
27113;SDS011;14648;49.730;8.614;2024-02-16T14:16:43;2.10;;;1.33;;
27113;SDS011;14648;49.730;8.614;2024-02-16T14:19:12;1.80;;;1.60;;
27113;SDS011;14648;49.730;8.614;2024-02-16T14:21:37;1.27;;;1.00;;
27113;SDS011;14648;49.730;8.614;2024-02-16T14:24:03;2.10;;;1.20;;
27113;SDS011;14648;49.730;8.614;2024-02-16T14:26:30;3.17;;;1.27;;
27113;SDS011;14648;49.730;8.614;2024-02-16T14:28:57;2.30;;;1.20;;
27113;SDS011;14648;49.730;8.614;2024-02-16T14:31:34;1.87;;;1.37;;
27113;SDS011;14648;49.730;8.614;2024-02-16T14:34:00;1.10;;;0.90;;
27113;SDS011;14648;49.730;8.614;2024-02-16T14:36:38;1.33;;;1.23;;
27113;SDS011;14648;49.730;8.614;2024-02-16T14:39:05;4.80;;;1.23;;
27113;SDS011;14648;49.730;8.614;2024-02-16T14:41:31;1.83;;;1.27;;
27113;SDS011;14648;49.730;8.614;2024-02-16T14:43:59;1.47;;;1.00;;
27113;SDS011;14648;49.730;8.614;2024-02-16T14:46:25;2.77;;;1.13;;
27113;SDS011;14648;49.730;8.614;2024-02-16T14:48:51;2.03;;;1.23;;